Time;durP1;ratioP1;P1;durP2;ratioP2;P2;SDS_P1;SDS_P2;PMS_P1;PMS_P2;Temp;Humidity;BMP_temperature;BMP_pressure;BME280_temperature;BME280_humidity;BME280_pressure;Samples;Min_cycle;Max_cycle;Signal;HPM_P1;HPM_P2
2023/01/14 00:01:11;;;;;;;1.75;1.42;;;;;;;;;;4953234;28;20111;-85
2023/01/14 00:03:40;;;;;;;2.35;1.00;;;;;;;;;;4947415;28;20201;-85
2023/01/14 00:06:13;;;;;;;7.38;1.38;;;;;;;;;;4953439;28;20023;-85
2023/01/14 00:08:39;;;;;;;3.00;1.33;;;;;;;;;;4946042;28;20743;-86
2023/01/14 00:11:07;;;;;;;3.53;1.77;;;;;;;;;;4963384;28;20031;-86
2023/01/14 00:13:33;;;;;;;1.75;0.98;;;;;;;;;;4953174;28;20110;-86
2023/01/14 00:15:59;;;;;;;8.55;1.52;;;;;;;;;;4954811;28;20065;-86
2023/01/14 00:18:25;;;;;;;1.30;0.93;;;;;;;;;;4967899;28;20038;-86
2023/01/14 00:21:02;;;;;;;3.10;0.88;;;;;;;;;;4955631;28;20028;-86
2023/01/14 00:23:33;;;;;;;0.60;0.60;;;;;;;;;;4954452;28;20027;-86
2023/01/14 00:26:09;;;;;;;10.38;1.13;;;;;;;;;;4967186;28;20023;-86
2023/01/14 00:28:34;;;;;;;6.20;1.42;;;;;;;;;;4951044;28;20036;-86
2023/01/14 00:31:24;;;;;;;1.73;1.10;;;;;;;;;;4954151;28;20027;-86
2023/01/14 00:33:50;;;;;;;2.60;0.77;;;;;;;;;;4955274;28;20027;-86
2023/01/14 00:36:20;;;;;;;0.80;0.80;;;;;;;;;;4955227;28;20047;-85
2023/01/14 00:38:46;;;;;;;7.40;1.23;;;;;;;;;;4967352;28;20030;-87
2023/01/14 00:41:21;;;;;;;3.08;1.35;;;;;;;;;;4952826;28;20039;-86
2023/01/14 00:43:49;;;;;;;0.98;0.93;;;;;;;;;;4952992;28;20049;-86
2023/01/14 00:46:24;;;;;;;5.18;1.20;;;;;;;;;;4956138;28;20027;-85
2023/01/14 00:48:49;;;;;;;2.17;1.27;;;;;;;;;;4956177;28;20063;-86
2023/01/14 00:51:16;;;;;;;3.83;1.15;;;;;;;;;;4953128;28;20032;-85
2023/01/14 00:53:42;;;;;;;2.53;0.77;;;;;;;;;;4957491;28;20034;-87
2023/01/14 00:56:08;;;;;;;2.50;1.42;;;;;;;;;;4959728;28;20534;-87
2023/01/14 00:58:34;;;;;;;3.42;1.00;;;;;;;;;;4973824;28;20027;-85
2023/01/14 01:01:00;;;;;;;1.70;1.08;;;;;;;;;;4978270;28;20027;-85
2023/01/14 01:03:29;;;;;;;7.13;1.75;;;;;;;;;;4971674;28;20035;-84
2023/01/14 01:05:55;;;;;;;9.00;1.15;;;;;;;;;;4980463;28;20054;-86
2023/01/14 01:08:21;;;;;;;5.10;0.82;;;;;;;;;;4962893;28;20027;-86
2023/01/14 01:10:54;;;;;;;5.30;1.48;;;;;;;;;;4965019;28;20031;-86
2023/01/14 01:13:23;;;;;;;4.03;1.35;;;;;;;;;;4965725;28;20051;-86
2023/01/14 01:15:50;;;;;;;0.93;0.77;;;;;;;;;;4968505;28;20015;-86
2023/01/14 01:18:16;;;;;;;1.63;0.95;;;;;;;;;;4959919;28;20027;-86
2023/01/14 01:20:42;;;;;;;3.10;1.10;;;;;;;;;;4957989;28;20034;-85
2023/01/14 01:23:11;;;;;;;5.05;1.58;;;;;;;;;;4964827;28;20499;-86
2023/01/14 01:25:36;;;;;;;1.40;0.80;;;;;;;;;;4953377;28;20031;-85
2023/01/14 01:28:02;;;;;;;7.53;0.82;;;;;;;;;;4972760;28;20023;-86
2023/01/14 01:30:31;;;;;;;5.72;1.35;;;;;;;;;;4948977;28;20802;-86
2023/01/14 01:33:01;;;;;;;4.20;1.40;;;;;;;;;;4953797;28;20059;-85
2023/01/14 01:35:26;;;;;;;0.80;0.60;;;;;;;;;;4958027;28;20090;-85
2023/01/14 01:37:52;;;;;;;5.80;1.40;;;;;;;;;;4958042;28;20915;-86
2023/01/14 01:40:17;;;;;;;5.47;1.20;;;;;;;;;;4953642;28;20039;-86
2023/01/14 01:42:54;;;;;;;4.72;0.80;;;;;;;;;;4960290;28;20197;-86
2023/01/14 01:45:38;;;;;;;2.97;1.02;;;;;;;;;;4964979;28;20023;-87
2023/01/14 01:48:10;;;;;;;2.40;0.70;;;;;;;;;;4959141;28;20022;-85
2023/01/14 01:50:35;;;;;;;0.90;0.88;;;;;;;;;;4958639;28;20027;-85
2023/01/14 01:53:02;;;;;;;7.03;1.38;;;;;;;;;;4970680;28;20030;-86
2023/01/14 01:55:31;;;;;;;8.40;1.67;;;;;;;;;;4975545;28;20042;-87
2023/01/14 01:57:56;;;;;;;4.93;1.23;;;;;;;;;;4955936;28;20019;-86
2023/01/14 02:00:26;;;;;;;3.63;1.17;;;;;;;;;;4956052;28;20067;-86
2023/01/14 02:02:59;;;;;;;3.45;0.98;;;;;;;;;;4956250;28;20035;-86
2023/01/14 02:05:25;;;;;;;3.88;0.93;;;;;;;;;;4971513;28;20034;-87
2023/01/14 02:07:50;;;;;;;3.55;1.17;;;;;;;;;;4946846;28;20034;-87
2023/01/14 02:10:17;;;;;;;9.43;1.83;;;;;;;;;;4948347;28;20019;-86
2023/01/14 02:12:54;;;;;;;1.38;1.23;;;;;;;;;;4964742;28;20023;-87
2023/01/14 02:15:29;;;;;;;1.88;0.93;;;;;;;;;;4957434;28;20035;-87
2023/01/14 02:18:16;;;;;;;6.32;1.75;;;;;;;;;;4951056;28;20482;-88
2023/01/14 02:21:00;;;;;;;1.77;0.60;;;;;;;;;;4946294;28;20085;-85
2023/01/14 02:24:03;;;;;;;5.85;1.63;;;;;;;;;;4959319;28;20138;-87
2023/01/14 02:26:40;;;;;;;6.57;2.45;;;;;;;;;;4940461;28;20042;-88
2023/01/14 02:29:23;;;;;;;4.45;1.17;;;;;;;;;;4950782;28;20082;-88
2023/01/14 02:31:57;;;;;;;4.20;0.80;;;;;;;;;;4946438;29;20070;-85
2023/01/14 02:34:34;;;;;;;0.90;0.73;;;;;;;;;;4966808;28;20034;-85
2023/01/14 02:37:33;;;;;;;5.03;1.30;;;;;;;;;;4958821;28;20055;-88
2023/01/14 02:40:13;;;;;;;1.35;0.85;;;;;;;;;;4965771;28;20757;-86
2023/01/14 02:45:48;;;;;;;3.25;1.05;;;;;;;;;;4958770;28;20038;-88
2023/01/14 02:48:15;;;;;;;11.48;1.90;;;;;;;;;;4958741;28;20038;-85
2023/01/14 02:50:41;;;;;;;3.75;1.95;;;;;;;;;;4974725;28;20066;-87
2023/01/14 02:53:11;;;;;;;1.38;0.88;;;;;;;;;;4959419;28;20031;-86
2023/01/14 02:55:38;;;;;;;4.68;1.13;;;;;;;;;;4982851;28;20030;-86
2023/01/14 02:58:35;;;;;;;8.00;1.23;;;;;;;;;;4958051;28;20031;-86
2023/01/14 03:01:12;;;;;;;5.63;1.55;;;;;;;;;;4972667;28;20027;-85
2023/01/14 03:03:50;;;;;;;7.15;1.50;;;;;;;;;;4944971;29;20027;-85
2023/01/14 03:06:43;;;;;;;5.07;1.60;;;;;;;;;;4960085;28;20030;-86
2023/01/14 03:09:27;;;;;;;6.85;1.58;;;;;;;;;;4957713;29;20023;-85
2023/01/14 03:12:10;;;;;;;4.78;1.05;;;;;;;;;;4957499;28;20019;-88
2023/01/14 03:15:05;;;;;;;4.38;1.00;;;;;;;;;;4955900;28;20390;-86
2023/01/14 03:17:34;;;;;;;2.78;0.73;;;;;;;;;;4953360;29;20023;-86
2023/01/14 03:20:06;;;;;;;12.05;1.67;;;;;;;;;;4958048;28;20550;-88
2023/01/14 03:22:33;;;;;;;7.18;1.73;;;;;;;;;;4973043;28;20031;-87
2023/01/14 03:25:00;;;;;;;7.93;0.85;;;;;;;;;;4977117;28;20027;-88
2023/01/14 03:27:31;;;;;;;2.13;0.93;;;;;;;;;;4958082;28;20039;-87
2023/01/14 03:30:05;;;;;;;5.65;2.22;;;;;;;;;;4940514;29;20032;-88
2023/01/14 03:32:37;;;;;;;11.68;3.92;;;;;;;;;;4948911;29;20031;-88
2023/01/14 03:35:10;;;;;;;16.88;8.23;;;;;;;;;;4957047;28;20027;-87
2023/01/14 03:37:41;;;;;;;34.42;11.75;;;;;;;;;;4957671;28;20076;-87
2023/01/14 03:40:10;;;;;;;17.73;8.82;;;;;;;;;;4957949;28;20027;-86
2023/01/14 03:42:42;;;;;;;6.53;3.20;;;;;;;;;;4958399;28;20041;-88
2023/01/14 03:45:22;;;;;;;7.22;2.03;;;;;;;;;;4951932;29;20030;-87
2023/01/14 03:47:48;;;;;;;6.10;1.95;;;;;;;;;;4960064;28;20097;-87
2023/01/14 03:50:18;;;;;;;3.00;1.27;;;;;;;;;;4977753;28;20023;-87
2023/01/14 03:53:25;;;;;;;7.72;1.70;;;;;;;;;;4976973;28;20042;-87
2023/01/14 03:56:08;;;;;;;6.00;1.30;;;;;;;;;;4959943;29;20092;-88
2023/01/14 03:58:43;;;;;;;4.63;1.17;;;;;;;;;;4932258;29;20035;-86
2023/01/14 04:01:14;;;;;;;3.28;2.00;;;;;;;;;;4962858;28;20112;-86
2023/01/14 04:03:40;;;;;;;1.77;0.98;;;;;;;;;;4965122;28;20031;-87
2023/01/14 04:06:06;;;;;;;9.98;1.52;;;;;;;;;;4965630;28;20087;-87
2023/01/14 04:08:32;;;;;;;5.30;1.50;;;;;;;;;;4983029;28;20031;-88
2023/01/14 04:10:57;;;;;;;0.68;0.68;;;;;;;;;;4978099;28;20037;-88
2023/01/14 04:16:07;;;;;;;4.22;1.20;;;;;;;;;;4979438;29;20034;-88
2023/01/14 04:18:32;;;;;;;3.38;0.95;;;;;;;;;;4986248;28;20035;-87
2023/01/14 04:20:58;;;;;;;4.07;1.15;;;;;;;;;;4964508;29;20027;-87
2023/01/14 04:23:23;;;;;;;3.13;1.15;;;;;;;;;;4976620;28;20429;-88
2023/01/14 04:25:55;;;;;;;1.65;1.20;;;;;;;;;;4962049;28;20042;-87
2023/01/14 04:28:21;;;;;;;2.53;1.20;;;;;;;;;;4963551;28;20031;-87
2023/01/14 04:30:48;;;;;;;2.95;1.98;;;;;;;;;;4951798;29;20031;-87
2023/01/14 04:33:13;;;;;;;4.32;1.55;;;;;;;;;;4960282;28;20034;-87
2023/01/14 04:35:38;;;;;;;2.22;1.05;;;;;;;;;;4961546;28;20031;-87
2023/01/14 04:38:04;;;;;;;2.60;1.38;;;;;;;;;;4950978;29;20059;-86
2023/01/14 04:40:30;;;;;;;2.05;1.30;;;;;;;;;;4961747;29;20031;-87
2023/01/14 04:42:55;;;;;;;3.78;1.27;;;;;;;;;;4960162;28;20019;-88
2023/01/14 04:45:20;;;;;;;0.73;0.70;;;;;;;;;;4961200;28;20051;-88
2023/01/14 04:47:49;;;;;;;2.30;1.35;;;;;;;;;;4968453;29;20075;-87
2023/01/14 04:53:09;;;;;;;6.70;1.20;;;;;;;;;;4975807;29;20061;-87
2023/01/14 04:55:39;;;;;;;2.78;1.38;;;;;;;;;;4977021;28;20024;-88
2023/01/14 04:58:07;;;;;;;5.63;1.33;;;;;;;;;;4976834;28;20401;-88
2023/01/14 05:00:33;;;;;;;1.60;1.15;;;;;;;;;;4960667;28;20035;-87
2023/01/14 05:03:01;;;;;;;1.60;1.50;;;;;;;;;;4961175;28;20035;-88
2023/01/14 05:05:27;;;;;;;4.03;1.45;;;;;;;;;;4958325;28;20616;-87
2023/01/14 05:07:53;;;;;;;11.32;2.28;;;;;;;;;;4960963;28;20044;-87
2023/01/14 05:10:18;;;;;;;2.70;1.13;;;;;;;;;;4959603;28;20106;-88
2023/01/14 05:12:55;;;;;;;5.47;1.38;;;;;;;;;;4977010;28;20078;-88
2023/01/14 05:15:29;;;;;;;5.30;1.35;;;;;;;;;;4972372;28;20036;-87
2023/01/14 05:17:55;;;;;;;6.25;1.60;;;;;;;;;;4962329;28;20030;-87
2023/01/14 05:20:21;;;;;;;3.17;1.40;;;;;;;;;;4961284;29;20053;-88
2023/01/14 05:22:46;;;;;;;6.68;1.08;;;;;;;;;;4960880;28;20054;-89
2023/01/14 05:25:12;;;;;;;2.97;1.45;;;;;;;;;;4963806;28;20059;-87
2023/01/14 05:27:37;;;;;;;5.68;1.30;;;;;;;;;;4989489;28;20046;-87
2023/01/14 05:30:04;;;;;;;4.05;0.95;;;;;;;;;;4969857;29;20011;-87
2023/01/14 05:32:29;;;;;;;1.25;0.63;;;;;;;;;;4968162;28;20035;-87
2023/01/14 05:34:54;;;;;;;6.18;1.27;;;;;;;;;;4967534;28;20035;-85
2023/01/14 05:37:20;;;;;;;6.95;1.30;;;;;;;;;;4961176;28;20034;-87
2023/01/14 05:39:45;;;;;;;2.53;0.75;;;;;;;;;;4959590;28;20082;-87
2023/01/14 05:47:40;;;;;;;4.75;1.13;;;;;;;;;;4959536;29;20085;-88
2023/01/14 05:50:05;;;;;;;1.52;0.98;;;;;;;;;;4959868;28;20023;-87
2023/01/14 05:52:31;;;;;;;2.65;0.90;;;;;;;;;;4959968;28;20027;-87
2023/01/14 05:54:56;;;;;;;2.53;0.93;;;;;;;;;;4960684;28;20050;-87
2023/01/14 05:57:21;;;;;;;1.38;0.57;;;;;;;;;;4959887;28;20393;-88
2023/01/14 05:59:47;;;;;;;4.80;1.55;;;;;;;;;;4961712;28;20032;-86
2023/01/14 06:07:40;;;;;;;5.50;1.20;;;;;;;;;;4959264;29;20063;-86
2023/01/14 06:10:05;;;;;;;3.10;1.48;;;;;;;;;;4957828;28;20039;-87
2023/01/14 06:12:57;;;;;;;4.95;1.30;;;;;;;;;;4960070;28;20039;-87
2023/01/14 06:15:22;;;;;;;2.67;0.90;;;;;;;;;;4959277;29;20086;-87
2023/01/14 06:17:57;;;;;;;13.18;1.30;;;;;;;;;;4951134;28;20031;-88
2023/01/14 06:20:23;;;;;;;9.93;1.10;;;;;;;;;;4958706;28;20019;-87
2023/01/14 06:22:48;;;;;;;5.68;1.20;;;;;;;;;;4971582;28;20434;-88
2023/01/14 06:25:14;;;;;;;2.58;1.02;;;;;;;;;;4974079;28;20379;-88
2023/01/14 06:27:39;;;;;;;6.97;1.23;;;;;;;;;;4974451;28;20037;-87
2023/01/14 06:30:05;;;;;;;4.72;1.88;;;;;;;;;;4959801;28;20437;-89
2023/01/14 06:32:33;;;;;;;8.23;1.38;;;;;;;;;;4959755;28;20028;-88
2023/01/14 06:35:25;;;;;;;4.13;1.35;;;;;;;;;;4960674;28;20037;-89
2023/01/14 06:37:50;;;;;;;6.87;1.17;;;;;;;;;;4960782;28;20035;-88
2023/01/14 06:40:16;;;;;;;3.92;1.52;;;;;;;;;;4962792;29;20691;-88
2023/01/14 06:42:42;;;;;;;3.78;1.27;;;;;;;;;;4963193;28;20031;-87
2023/01/14 06:45:09;;;;;;;7.28;1.02;;;;;;;;;;4970212;28;20030;-88
2023/01/14 06:47:53;;;;;;;3.45;1.60;;;;;;;;;;4976238;28;20066;-87
2023/01/14 06:50:18;;;;;;;6.13;1.63;;;;;;;;;;4969280;28;20087;-88
2023/01/14 06:59:27;;;;;;;4.97;1.00;;;;;;;;;;4956857;29;20054;-87
2023/01/14 07:01:52;;;;;;;3.63;1.20;;;;;;;;;;4978621;28;20027;-88
2023/01/14 07:04:18;;;;;;;2.80;0.80;;;;;;;;;;4970552;28;20043;-88
2023/01/14 07:06:43;;;;;;;4.00;0.77;;;;;;;;;;4951700;29;20046;-88
2023/01/14 07:09:46;;;;;;;1.50;0.80;;;;;;;;;;4970472;28;20032;-87
2023/01/14 07:12:11;;;;;;;0.68;0.68;;;;;;;;;;4956568;28;20052;-87
2023/01/14 07:14:43;;;;;;;7.57;1.10;;;;;;;;;;4957661;28;20090;-88
2023/01/14 07:17:09;;;;;;;4.97;1.25;;;;;;;;;;4949383;29;20574;-87
2023/01/14 07:19:34;;;;;;;8.55;1.95;;;;;;;;;;4958173;28;20062;-87
2023/01/14 07:21:59;;;;;;;9.82;1.25;;;;;;;;;;4954742;28;20086;-86
2023/01/14 07:24:25;;;;;;;7.00;1.63;;;;;;;;;;4972864;28;20118;-86
2023/01/14 07:26:50;;;;;;;6.20;1.42;;;;;;;;;;4958420;29;20023;-87
2023/01/14 07:29:15;;;;;;;2.60;1.00;;;;;;;;;;4957195;29;20444;-85
2023/01/14 07:31:41;;;;;;;2.75;1.20;;;;;;;;;;4968897;28;20371;-87
2023/01/14 07:34:07;;;;;;;3.70;1.10;;;;;;;;;;4951616;29;20019;-86
2023/01/14 07:36:32;;;;;;;5.72;1.02;;;;;;;;;;4958313;28;20027;-86
2023/01/14 07:38:58;;;;;;;1.65;0.80;;;;;;;;;;4973446;28;20746;-86
2023/01/14 07:41:23;;;;;;;2.22;0.77;;;;;;;;;;4957702;29;20020;-87
2023/01/14 07:43:49;;;;;;;6.25;1.25;;;;;;;;;;4958468;29;20031;-87
2023/01/14 07:46:15;;;;;;;1.67;1.23;;;;;;;;;;4957013;28;21809;-88
2023/01/14 07:48:42;;;;;;;8.20;1.20;;;;;;;;;;4954590;28;20033;-87
2023/01/14 07:51:08;;;;;;;2.13;0.98;;;;;;;;;;4972988;28;20568;-87
2023/01/14 07:53:34;;;;;;;4.20;0.98;;;;;;;;;;4973921;28;20035;-87
2023/01/14 07:56:01;;;;;;;1.85;1.27;;;;;;;;;;4958988;28;20033;-87
2023/01/14 07:58:26;;;;;;;1.75;1.13;;;;;;;;;;4984209;28;20078;-87
2023/01/14 08:00:53;;;;;;;4.30;1.27;;;;;;;;;;4959164;29;20027;-86
2023/01/14 08:03:18;;;;;;;3.78;0.93;;;;;;;;;;4951162;28;20045;-86
2023/01/14 08:05:44;;;;;;;4.75;1.38;;;;;;;;;;4959414;28;20051;-87
2023/01/14 08:08:10;;;;;;;4.18;1.25;;;;;;;;;;4958102;28;20541;-87
2023/01/14 08:10:35;;;;;;;6.00;1.17;;;;;;;;;;4957414;28;20474;-86
2023/01/14 08:13:01;;;;;;;3.70;1.02;;;;;;;;;;4958519;29;20027;-88
2023/01/14 08:15:26;;;;;;;6.53;1.10;;;;;;;;;;4952052;28;20403;-88
2023/01/14 08:17:54;;;;;;;4.20;1.55;;;;;;;;;;4957566;29;20027;-87
2023/01/14 08:20:22;;;;;;;4.28;1.10;;;;;;;;;;4958599;28;20048;-87
2023/01/14 08:22:48;;;;;;;7.18;1.10;;;;;;;;;;4960036;28;20486;-86
2023/01/14 08:26:19;;;;;;;4.93;1.33;;;;;;;;;;4972271;28;20031;-88
2023/01/14 08:28:20;;;;;;;10.55;1.63;;;;;;;;;;4954414;28;20059;-88
2023/01/14 08:30:45;;;;;;;3.97;1.45;;;;;;;;;;4970811;28;20079;-87
2023/01/14 08:33:10;;;;;;;6.20;1.45;;;;;;;;;;4969212;28;20042;-87
2023/01/14 08:35:42;;;;;;;5.80;1.65;;;;;;;;;;4973990;28;20031;-86
2023/01/14 08:40:57;;;;;;;8.60;1.65;;;;;;;;;;4960471;28;20035;-87
2023/01/14 08:43:22;;;;;;;4.38;1.23;;;;;;;;;;4978322;28;20536;-87
2023/01/14 08:45:50;;;;;;;2.03;1.02;;;;;;;;;;4982642;28;20033;-87
2023/01/14 08:48:15;;;;;;;3.63;1.15;;;;;;;;;;4962171;28;20721;-86
2023/01/14 08:50:41;;;;;;;3.65;1.48;;;;;;;;;;4961679;28;20050;-89
2023/01/14 08:53:06;;;;;;;0.93;0.80;;;;;;;;;;4980814;28;20099;-88
2023/01/14 08:59:02;;;;;;;6.40;1.83;;;;;;;;;;4943832;28;20043;-86
2023/01/14 09:01:29;;;;;;;3.28;0.90;;;;;;;;;;4969275;28;20024;-88
2023/01/14 09:03:57;;;;;;;5.80;1.42;;;;;;;;;;4977010;28;20031;-86
2023/01/14 09:06:23;;;;;;;4.97;1.02;;;;;;;;;;4971358;28;20019;-86
2023/01/14 09:17:26;;;;;;;4.18;1.10;;;;;;;;;;4959330;29;20038;-88
2023/01/14 09:20:24;;;;;;;4.78;0.63;;;;;;;;;;4954777;29;20064;-87
2023/01/14 09:22:50;;;;;;;2.30;0.90;;;;;;;;;;4961670;28;20107;-86
2023/01/14 09:25:16;;;;;;;2.45;1.08;;;;;;;;;;4959837;28;20046;-87
2023/01/14 09:27:41;;;;;;;3.90;1.05;;;;;;;;;;4962336;28;20027;-87
2023/01/14 09:30:26;;;;;;;0.85;0.77;;;;;;;;;;4983313;28;20023;-86
2023/01/14 09:32:51;;;;;;;5.60;1.33;;;;;;;;;;4982600;28;20046;-86
2023/01/14 09:35:17;;;;;;;3.25;1.17;;;;;;;;;;4948019;29;20031;-85
2023/01/14 09:37:42;;;;;;;2.28;1.15;;;;;;;;;;4974909;28;20031;-86
2023/01/14 09:40:09;;;;;;;11.93;1.50;;;;;;;;;;4959752;28;20031;-86
2023/01/14 09:42:39;;;;;;;1.17;0.60;;;;;;;;;;4961550;28;20163;-87
2023/01/14 09:45:24;;;;;;;6.32;1.27;;;;;;;;;;4976099;28;20114;-87
2023/01/14 09:47:50;;;;;;;2.15;0.98;;;;;;;;;;4959989;28;20039;-87
2023/01/14 09:50:51;;;;;;;1.33;0.70;;;;;;;;;;4970621;28;20078;-85
2023/01/14 09:53:39;;;;;;;0.70;0.70;;;;;;;;;;4953478;28;20043;-86
2023/01/14 09:56:54;;;;;;;;;;;;;;;;;;;;;
2023/01/14 09:59:42;;;;;;;2.55;0.80;;;;;;;;;;4943409;29;20087;-87
2023/01/14 10:02:23;;;;;;;7.95;1.27;;;;;;;;;;4958735;28;20022;-86
2023/01/14 10:05:20;;;;;;;2.88;1.05;;;;;;;;;;4958267;28;20028;-86
2023/01/14 10:07:45;;;;;;;2.25;1.15;;;;;;;;;;4955581;29;20118;-86
2023/01/14 10:10:26;;;;;;;3.30;1.10;;;;;;;;;;4960591;28;20077;-86
2023/01/14 10:12:59;;;;;;;2.17;0.70;;;;;;;;;;4961262;29;20034;-84
2023/01/14 10:15:38;;;;;;;6.85;0.90;;;;;;;;;;4961532;28;20054;-86
2023/01/14 10:18:16;;;;;;;2.53;1.13;;;;;;;;;;4961067;28;20030;-84
2023/01/14 10:21:16;;;;;;;0.70;0.70;;;;;;;;;;4944147;29;20071;-88
2023/01/14 10:23:41;;;;;;;4.30;1.05;;;;;;;;;;4940172;29;20046;-84
2023/01/14 10:26:13;;;;;;;5.15;1.98;;;;;;;;;;4954690;28;20031;-84
2023/01/14 10:28:39;;;;;;;0.88;0.88;;;;;;;;;;4976012;28;20014;-84
2023/01/14 10:31:06;;;;;;;3.95;0.95;;;;;;;;;;4958729;28;20405;-87
2023/01/14 10:33:31;;;;;;;0.70;0.70;;;;;;;;;;4961140;28;20023;-86
2023/01/14 10:36:00;;;;;;;1.83;0.85;;;;;;;;;;4976652;28;20035;-87
2023/01/14 10:38:27;;;;;;;0.82;0.75;;;;;;;;;;4961779;28;20441;-88
2023/01/14 10:40:58;;;;;;;2.35;0.90;;;;;;;;;;4965469;28;20052;-87
2023/01/14 10:43:33;;;;;;;1.15;1.08;;;;;;;;;;4975638;28;20122;-88
2023/01/14 10:45:59;;;;;;;9.18;2.10;;;;;;;;;;4958182;29;20038;-87
2023/01/14 10:48:26;;;;;;;2.13;1.50;;;;;;;;;;4961390;28;20031;-86
2023/01/14 10:50:52;;;;;;;1.77;1.20;;;;;;;;;;4961685;28;20034;-86
2023/01/14 10:53:19;;;;;;;5.60;1.10;;;;;;;;;;4961286;28;20031;-86
2023/01/14 10:55:53;;;;;;;3.85;1.75;;;;;;;;;;4957796;28;20046;-84
2023/01/14 10:58:26;;;;;;;5.75;1.90;;;;;;;;;;4953393;28;20103;-86
2023/01/14 11:00:59;;;;;;;5.38;1.42;;;;;;;;;;4954095;28;20466;-85
2023/01/14 11:03:28;;;;;;;5.90;1.63;;;;;;;;;;4956902;28;20023;-86
2023/01/14 11:05:56;;;;;;;2.30;1.33;;;;;;;;;;4959077;28;20110;-87
2023/01/14 11:08:36;;;;;;;2.78;1.30;;;;;;;;;;4957992;29;20054;-85
2023/01/14 11:11:33;;;;;;;3.85;1.10;;;;;;;;;;4956415;28;20028;-87
2023/01/14 11:14:18;;;;;;;6.80;1.27;;;;;;;;;;4950639;29;20584;-86
2023/01/14 11:16:44;;;;;;;2.72;1.20;;;;;;;;;;4962295;28;20031;-84
2023/01/14 11:19:15;;;;;;;4.93;1.38;;;;;;;;;;4962884;28;20561;-86
2023/01/14 11:21:46;;;;;;;2.47;1.20;;;;;;;;;;4956196;29;20051;-87
2023/01/14 11:24:49;;;;;;;2.53;1.13;;;;;;;;;;4962876;28;20099;-87
2023/01/14 11:27:19;;;;;;;3.20;0.77;;;;;;;;;;4958277;28;20031;-86
2023/01/14 11:29:48;;;;;;;1.58;1.23;;;;;;;;;;4957724;28;20019;-87
2023/01/14 11:32:15;;;;;;;2.25;1.10;;;;;;;;;;4958225;28;20035;-88
2023/01/14 11:34:49;;;;;;;2.03;0.85;;;;;;;;;;4953719;28;21089;-89
2023/01/14 11:37:18;;;;;;;1.05;0.90;;;;;;;;;;4957242;29;20541;-89
2023/01/14 11:39:51;;;;;;;3.60;1.10;;;;;;;;;;4958194;28;20122;-87
2023/01/14 11:42:26;;;;;;;1.55;1.00;;;;;;;;;;4963466;28;20027;-87
2023/01/14 11:45:10;;;;;;;1.77;0.68;;;;;;;;;;4967153;29;20442;-88
2023/01/14 11:47:50;;;;;;;2.10;0.90;;;;;;;;;;4956145;29;20094;-87
2023/01/14 11:50:18;;;;;;;0.73;0.65;;;;;;;;;;4951725;29;20062;-86
2023/01/14 11:52:57;;;;;;;2.35;1.10;;;;;;;;;;4955316;28;20045;-87
2023/01/14 11:55:25;;;;;;;2.83;1.25;;;;;;;;;;4956383;29;20106;-88
2023/01/14 11:57:50;;;;;;;0.63;0.55;;;;;;;;;;4954687;29;20058;-89
2023/01/14 12:00:16;;;;;;;2.60;0.88;;;;;;;;;;4954390;28;20644;-86
2023/01/14 12:02:48;;;;;;;2.15;1.00;;;;;;;;;;4960464;28;20023;-88
2023/01/14 12:05:22;;;;;;;0.80;0.80;;;;;;;;;;4954470;28;20147;-88
2023/01/14 12:07:47;;;;;;;1.40;1.02;;;;;;;;;;4959444;28;20047;-87
2023/01/14 12:10:31;;;;;;;2.92;0.98;;;;;;;;;;4953136;28;20418;-86
2023/01/14 12:19:32;;;;;;;5.53;2.00;;;;;;;;;;4954049;29;20046;-86
2023/01/14 12:22:25;;;;;;;8.27;2.17;;;;;;;;;;4950295;29;20042;-83
2023/01/14 12:25:12;;;;;;;3.50;1.77;;;;;;;;;;4957988;28;20218;-85
2023/01/14 12:27:55;;;;;;;5.93;1.50;;;;;;;;;;4967724;29;20023;-86
2023/01/14 12:30:39;;;;;;;2.42;0.95;;;;;;;;;;4966791;28;20023;-85
2023/01/14 12:33:15;;;;;;;4.22;1.58;;;;;;;;;;4964692;28;20027;-88
2023/01/14 12:36:03;;;;;;;2.17;1.33;;;;;;;;;;4964912;28;20493;-87
2023/01/14 12:47:26;;;;;;;1.27;1.17;;;;;;;;;;4955571;28;20397;-86
2023/01/14 12:49:51;;;;;;;2.65;1.02;;;;;;;;;;4955810;28;20027;-86
2023/01/14 12:52:28;;;;;;;3.28;1.42;;;;;;;;;;4956656;28;20544;-84
2023/01/14 12:54:56;;;;;;;2.92;1.38;;;;;;;;;;4957090;28;20048;-85
2023/01/14 12:57:23;;;;;;;3.25;1.58;;;;;;;;;;4956629;28;20074;-87
2023/01/14 13:00:16;;;;;;;1.27;1.00;;;;;;;;;;4970331;29;20024;-85
2023/01/14 13:02:46;;;;;;;1.83;1.13;;;;;;;;;;4954853;28;20114;-87
2023/01/14 13:05:23;;;;;;;1.27;1.00;;;;;;;;;;4958675;28;20023;-87
2023/01/14 13:08:00;;;;;;;3.10;1.02;;;;;;;;;;4959030;29;20043;-88
2023/01/14 13:10:48;;;;;;;1.92;1.33;;;;;;;;;;4957278;28;20027;-85
2023/01/14 13:13:20;;;;;;;1.02;0.98;;;;;;;;;;4956505;29;20035;-86
2023/01/14 13:15:46;;;;;;;4.22;1.10;;;;;;;;;;4964591;29;20039;-86
2023/01/14 13:18:33;;;;;;;0.50;0.50;;;;;;;;;;4972886;29;20090;-84
2023/01/14 13:20:59;;;;;;;1.35;0.88;;;;;;;;;;4992666;28;20019;-82
2023/01/14 13:23:58;;;;;;;1.67;1.00;;;;;;;;;;4993168;28;20043;-82
2023/01/14 13:26:38;;;;;;;2.20;1.20;;;;;;;;;;4979100;28;20012;-83
2023/01/14 13:29:26;;;;;;;2.30;1.23;;;;;;;;;;4970086;28;20019;-87
2023/01/14 13:32:31;;;;;;;1.52;0.82;;;;;;;;;;4961641;29;20359;-89
2023/01/14 13:35:01;;;;;;;3.45;1.20;;;;;;;;;;4935838;28;20057;-85
2023/01/14 13:37:28;;;;;;;1.65;0.88;;;;;;;;;;4975656;28;20034;-88
2023/01/14 13:39:54;;;;;;;5.72;0.93;;;;;;;;;;4959117;28;20061;-87
2023/01/14 13:42:24;;;;;;;2.33;0.82;;;;;;;;;;4964645;28;20038;-86
2023/01/14 13:44:51;;;;;;;3.90;1.15;;;;;;;;;;4969903;28;20027;-81
2023/01/14 13:47:27;;;;;;;3.05;1.02;;;;;;;;;;4979948;28;20039;-88
2023/01/14 13:49:58;;;;;;;2.33;1.38;;;;;;;;;;4972303;28;20016;-89
2023/01/14 13:52:25;;;;;;;1.55;0.85;;;;;;;;;;4956657;29;20041;-87
2023/01/14 13:55:01;;;;;;;4.07;1.38;;;;;;;;;;4957536;28;20043;-87
2023/01/14 13:57:31;;;;;;;1.23;1.00;;;;;;;;;;4955717;29;20026;-86
2023/01/14 14:03:34;;;;;;;1.88;1.13;;;;;;;;;;4948185;28;20030;-85
2023/01/14 14:06:36;;;;;;;4.18;1.50;;;;;;;;;;4953758;28;20050;-84
2023/01/14 14:09:48;;;;;;;2.17;0.70;;;;;;;;;;4971329;28;20030;-84
2023/01/14 14:15:23;;;;;;;4.57;1.40;;;;;;;;;;4959294;28;20544;-86
2023/01/14 14:18:13;;;;;;;2.08;0.90;;;;;;;;;;4970106;28;20072;-85
2023/01/14 14:20:42;;;;;;;3.45;0.90;;;;;;;;;;4951731;29;20386;-83
2023/01/14 14:23:20;;;;;;;2.60;1.13;;;;;;;;;;4950251;28;20027;-88
2023/01/14 14:25:47;;;;;;;1.38;0.80;;;;;;;;;;4957589;29;20027;-86
2023/01/14 14:28:48;;;;;;;;;;;;;;;;;;;;;
2023/01/14 14:31:16;;;;;;;1.57;0.90;;;;;;;;;;4955848;28;20045;-86
2023/01/14 14:33:43;;;;;;;0.95;0.93;;;;;;;;;;4950858;28;20288;-85
2023/01/14 14:37:02;;;;;;;1.08;0.93;;;;;;;;;;4950109;28;20019;-88
2023/01/14 14:39:33;;;;;;;0.80;0.80;;;;;;;;;;4968174;28;20070;-86
2023/01/14 14:42:02;;;;;;;0.90;0.85;;;;;;;;;;4942248;28;21190;-87
2023/01/14 14:44:30;;;;;;;2.30;0.70;;;;;;;;;;4949198;28;20032;-85
2023/01/14 14:47:12;;;;;;;1.90;1.00;;;;;;;;;;4949394;28;20023;-86
2023/01/14 14:49:38;;;;;;;1.08;0.88;;;;;;;;;;4951253;28;20034;-86
2023/01/14 14:52:36;;;;;;;0.57;0.57;;;;;;;;;;4953456;28;20027;-86
2023/01/14 14:55:05;;;;;;;0.70;0.70;;;;;;;;;;4939350;29;20039;-85
2023/01/14 14:57:31;;;;;;;7.68;1.40;;;;;;;;;;4955359;28;20050;-83
2023/01/14 15:00:21;;;;;;;3.45;1.27;;;;;;;;;;4956198;28;20054;-88
2023/01/14 15:02:58;;;;;;;1.88;0.93;;;;;;;;;;4955717;28;20059;-88
2023/01/14 15:05:33;;;;;;;1.05;0.93;;;;;;;;;;4955441;28;21059;-87
2023/01/14 15:08:10;;;;;;;0.98;0.80;;;;;;;;;;4970341;28;20393;-88
2023/01/14 15:10:36;;;;;;;0.60;0.60;;;;;;;;;;4959309;29;20023;-89
2023/01/14 15:13:02;;;;;;;1.73;0.70;;;;;;;;;;4972517;28;20050;-85
2023/01/14 15:15:29;;;;;;;1.75;1.00;;;;;;;;;;4974647;28;20007;-86
2023/01/14 15:18:05;;;;;;;1.08;0.80;;;;;;;;;;4976751;28;20109;-88
2023/01/14 15:20:41;;;;;;;2.08;0.90;;;;;;;;;;4953339;29;20047;-86
2023/01/14 15:23:12;;;;;;;1.30;0.77;;;;;;;;;;4955638;28;20047;-87
2023/01/14 15:25:38;;;;;;;1.00;0.93;;;;;;;;;;4952019;29;20046;-88
2023/01/14 15:28:15;;;;;;;0.52;0.52;;;;;;;;;;4966601;28;20023;-87
2023/01/14 15:31:08;;;;;;;;;;;;;;;;;;;;;
2023/01/14 15:33:34;;;;;;;1.13;0.90;;;;;;;;;;4960811;28;20570;-87
2023/01/14 15:36:20;;;;;;;;;;;;;;;;;;;;;
2023/01/14 15:38:47;;;;;;;0.85;0.60;;;;;;;;;;4955637;29;20131;-86
2023/01/14 15:41:14;;;;;;;1.00;0.73;;;;;;;;;;4957598;28;20042;-86
2023/01/14 15:44:02;;;;;;;1.30;0.70;;;;;;;;;;4945717;28;20379;-86
2023/01/14 15:46:27;;;;;;;0.82;0.80;;;;;;;;;;4970271;28;20066;-88
2023/01/14 15:49:23;;;;;;;1.55;0.70;;;;;;;;;;4960075;28;20031;-87
2023/01/14 15:51:48;;;;;;;2.75;0.98;;;;;;;;;;4962806;28;20098;-88
2023/01/14 15:54:33;;;;;;;0.90;0.68;;;;;;;;;;4966660;28;20031;-86
2023/01/14 15:57:15;;;;;;;2.70;0.80;;;;;;;;;;4963469;28;20023;-88
2023/01/14 16:00:01;;;;;;;0.90;0.60;;;;;;;;;;4964904;28;20031;-87
2023/01/14 16:02:27;;;;;;;0.70;0.70;;;;;;;;;;4961229;29;20038;-88
2023/01/14 16:05:13;;;;;;;2.05;1.00;;;;;;;;;;4965831;28;20055;-87
2023/01/14 16:07:39;;;;;;;2.35;1.00;;;;;;;;;;4972763;29;20027;-87
2023/01/14 16:10:07;;;;;;;1.45;0.60;;;;;;;;;;4974732;28;20137;-87
2023/01/14 16:12:33;;;;;;;0.73;0.70;;;;;;;;;;4967425;28;20027;-87
2023/01/14 16:14:59;;;;;;;2.13;0.70;;;;;;;;;;4977795;28;20067;-86
2023/01/14 16:17:24;;;;;;;0.95;0.80;;;;;;;;;;4977783;28;20075;-85
2023/01/14 16:19:56;;;;;;;0.50;0.50;;;;;;;;;;4990160;28;20039;-88